sensor_id;sensor_type;location;lat;lon;timestamp;P1;durP1;ratioP1;P2;durP2;ratioP2
50555;SDS011;36508;52.512;13.450;2023-01-10T00:01:25;6.60;;;3.40;;
50555;SDS011;36508;52.512;13.450;2023-01-10T00:03:51;4.40;;;3.97;;
50555;SDS011;36508;52.512;13.450;2023-01-10T00:06:17;4.50;;;3.60;;
50555;SDS011;36508;52.512;13.450;2023-01-10T00:08:43;4.03;;;3.70;;
50555;SDS011;36508;52.512;13.450;2023-01-10T00:11:09;3.63;;;3.30;;
50555;SDS011;36508;52.512;13.450;2023-01-10T00:13:53;3.00;;;2.80;;
50555;SDS011;36508;52.512;13.450;2023-01-10T00:16:19;3.07;;;2.50;;
50555;SDS011;36508;52.512;13.450;2023-01-10T00:18:45;2.43;;;2.17;;
50555;SDS011;36508;52.512;13.450;2023-01-10T00:21:11;4.37;;;3.30;;
50555;SDS011;36508;52.512;13.450;2023-01-10T00:23:38;3.90;;;3.60;;
50555;SDS011;36508;52.512;13.450;2023-01-10T00:26:05;4.00;;;3.70;;
50555;SDS011;36508;52.512;13.450;2023-01-10T00:28:31;3.73;;;3.40;;
50555;SDS011;36508;52.512;13.450;2023-01-10T00:31:00;3.90;;;3.70;;
50555;SDS011;36508;52.512;13.450;2023-01-10T00:33:30;3.70;;;3.03;;
50555;SDS011;36508;52.512;13.450;2023-01-10T00:36:03;3.17;;;3.03;;
50555;SDS011;36508;52.512;13.450;2023-01-10T00:38:30;3.53;;;3.17;;
50555;SDS011;36508;52.512;13.450;2023-01-10T00:41:00;4.20;;;3.20;;
50555;SDS011;36508;52.512;13.450;2023-01-10T00:43:26;5.00;;;4.70;;
50555;SDS011;36508;52.512;13.450;2023-01-10T00:46:10;4.30;;;3.90;;
50555;SDS011;36508;52.512;13.450;2023-01-10T00:48:36;3.20;;;2.40;;
50555;SDS011;36508;52.512;13.450;2023-01-10T00:51:03;3.30;;;3.13;;
50555;SDS011;36508;52.512;13.450;2023-01-10T00:53:29;4.20;;;3.90;;
50555;SDS011;36508;52.512;13.450;2023-01-10T00:55:54;3.47;;;3.27;;
50555;SDS011;36508;52.512;13.450;2023-01-10T00:58:20;3.17;;;2.97;;
50555;SDS011;36508;52.512;13.450;2023-01-10T01:00:46;4.63;;;4.40;;
50555;SDS011;36508;52.512;13.450;2023-01-10T01:03:19;4.10;;;3.37;;
50555;SDS011;36508;52.512;13.450;2023-01-10T01:05:47;3.77;;;3.47;;
50555;SDS011;36508;52.512;13.450;2023-01-10T01:08:16;3.30;;;3.00;;
50555;SDS011;36508;52.512;13.450;2023-01-10T01:10:43;3.00;;;2.80;;
50555;SDS011;36508;52.512;13.450;2023-01-10T01:13:09;3.63;;;3.43;;
50555;SDS011;36508;52.512;13.450;2023-01-10T01:15:38;3.97;;;3.67;;
50555;SDS011;36508;52.512;13.450;2023-01-10T01:18:05;5.33;;;4.70;;
50555;SDS011;36508;52.512;13.450;2023-01-10T01:20:31;2.63;;;2.43;;
50555;SDS011;36508;52.512;13.450;2023-01-10T01:22:56;3.87;;;3.67;;
50555;SDS011;36508;52.512;13.450;2023-01-10T01:25:22;3.27;;;3.00;;
50555;SDS011;36508;52.512;13.450;2023-01-10T01:27:48;2.87;;;2.67;;
50555;SDS011;36508;52.512;13.450;2023-01-10T01:30:14;4.03;;;3.77;;
50555;SDS011;36508;52.512;13.450;2023-01-10T01:32:40;4.03;;;3.73;;
50555;SDS011;36508;52.512;13.450;2023-01-10T01:35:06;3.90;;;3.60;;
50555;SDS011;36508;52.512;13.450;2023-01-10T01:37:33;4.70;;;4.00;;
50555;SDS011;36508;52.512;13.450;2023-01-10T01:39:59;6.80;;;6.20;;
50555;SDS011;36508;52.512;13.450;2023-01-10T01:42:29;3.90;;;3.70;;
50555;SDS011;36508;52.512;13.450;2023-01-10T01:47:50;4.10;;;3.80;;
50555;SDS011;36508;52.512;13.450;2023-01-10T01:50:55;6.30;;;4.03;;
50555;SDS011;36508;52.512;13.450;2023-01-10T01:53:24;3.10;;;2.80;;
50555;SDS011;36508;52.512;13.450;2023-01-10T01:55:54;3.80;;;3.50;;
50555;SDS011;36508;52.512;13.450;2023-01-10T01:58:26;4.40;;;4.10;;
50555;SDS011;36508;52.512;13.450;2023-01-10T02:01:02;4.23;;;3.73;;
50555;SDS011;36508;52.512;13.450;2023-01-10T02:03:28;3.63;;;3.43;;
50555;SDS011;36508;52.512;13.450;2023-01-10T02:05:54;3.63;;;3.03;;
50555;SDS011;36508;52.512;13.450;2023-01-10T02:08:20;3.93;;;3.47;;
50555;SDS011;36508;52.512;13.450;2023-01-10T02:10:51;4.27;;;3.90;;
50555;SDS011;36508;52.512;13.450;2023-01-10T02:13:26;4.03;;;3.73;;
50555;SDS011;36508;52.512;13.450;2023-01-10T02:15:52;5.07;;;3.10;;
50555;SDS011;36508;52.512;13.450;2023-01-10T02:18:18;4.87;;;4.40;;
50555;SDS011;36508;52.512;13.450;2023-01-10T02:34:53;4.87;;;4.40;;
50555;SDS011;36508;52.512;13.450;2023-01-10T02:37:28;5.73;;;5.23;;
50555;SDS011;36508;52.512;13.450;2023-01-10T02:40:02;4.23;;;3.90;;
50555;SDS011;36508;52.512;13.450;2023-01-10T02:45:28;5.10;;;3.60;;
50555;SDS011;36508;52.512;13.450;2023-01-10T02:47:58;9.83;;;5.20;;
50555;SDS011;36508;52.512;13.450;2023-01-10T02:50:28;3.60;;;3.40;;
50555;SDS011;36508;52.512;13.450;2023-01-10T02:53:09;3.90;;;3.70;;
50555;SDS011;36508;52.512;13.450;2023-01-10T02:56:24;6.47;;;5.97;;
50555;SDS011;36508;52.512;13.450;2023-01-10T02:58:44;3.50;;;3.20;;
50555;SDS011;36508;52.512;13.450;2023-01-10T03:01:38;3.17;;;2.87;;
50555;SDS011;36508;52.512;13.450;2023-01-10T03:07:00;3.80;;;3.50;;
50555;SDS011;36508;52.512;13.450;2023-01-10T03:10:20;4.23;;;3.20;;
50555;SDS011;36508;52.512;13.450;2023-01-10T03:13:13;4.37;;;3.97;;
50555;SDS011;36508;52.512;13.450;2023-01-10T03:15:45;5.73;;;4.03;;
50555;SDS011;36508;52.512;13.450;2023-01-10T03:18:13;5.57;;;4.67;;
50555;SDS011;36508;52.512;13.450;2023-01-10T03:20:44;5.40;;;3.83;;
50555;SDS011;36508;52.512;13.450;2023-01-10T03:23:11;8.70;;;5.20;;
50555;SDS011;36508;52.512;13.450;2023-01-10T03:25:39;7.57;;;5.20;;
50555;SDS011;36508;52.512;13.450;2023-01-10T03:28:15;5.47;;;4.70;;
50555;SDS011;36508;52.512;13.450;2023-01-10T03:30:52;4.77;;;4.30;;
50555;SDS011;36508;52.512;13.450;2023-01-10T03:33:26;4.20;;;3.80;;
50555;SDS011;36508;52.512;13.450;2023-01-10T03:35:58;6.83;;;3.97;;
50555;SDS011;36508;52.512;13.450;2023-01-10T03:38:30;4.90;;;4.40;;
50555;SDS011;36508;52.512;13.450;2023-01-10T03:49:47;4.30;;;3.90;;
50555;SDS011;36508;52.512;13.450;2023-01-10T03:52:18;5.43;;;4.80;;
50555;SDS011;36508;52.512;13.450;2023-01-10T03:54:45;6.13;;;4.70;;
50555;SDS011;36508;52.512;13.450;2023-01-10T03:57:15;6.87;;;6.27;;
50555;SDS011;36508;52.512;13.450;2023-01-10T03:59:46;4.70;;;4.30;;
50555;SDS011;36508;52.512;13.450;2023-01-10T04:02:14;9.27;;;5.20;;
50555;SDS011;36508;52.512;13.450;2023-01-10T04:04:40;7.00;;;4.87;;
50555;SDS011;36508;52.512;13.450;2023-01-10T04:07:05;6.43;;;5.83;;
50555;SDS011;36508;52.512;13.450;2023-01-10T04:09:31;5.10;;;4.10;;
50555;SDS011;36508;52.512;13.450;2023-01-10T04:11:57;7.70;;;5.20;;
50555;SDS011;36508;52.512;13.450;2023-01-10T04:14:22;5.13;;;4.73;;
50555;SDS011;36508;52.512;13.450;2023-01-10T04:16:48;6.27;;;5.87;;
50555;SDS011;36508;52.512;13.450;2023-01-10T04:19:13;7.67;;;6.97;;
50555;SDS011;36508;52.512;13.450;2023-01-10T04:21:39;4.87;;;4.53;;
50555;SDS011;36508;52.512;13.450;2023-01-10T04:24:04;7.07;;;6.37;;
50555;SDS011;36508;52.512;13.450;2023-01-10T04:26:30;6.63;;;5.70;;
50555;SDS011;36508;52.512;13.450;2023-01-10T04:28:56;7.00;;;5.17;;
50555;SDS011;36508;52.512;13.450;2023-01-10T04:31:22;10.47;;;7.47;;
50555;SDS011;36508;52.512;13.450;2023-01-10T04:33:53;8.03;;;6.70;;
50555;SDS011;36508;52.512;13.450;2023-01-10T04:36:19;7.87;;;5.80;;
50555;SDS011;36508;52.512;13.450;2023-01-10T04:38:44;8.07;;;7.37;;
50555;SDS011;36508;52.512;13.450;2023-01-10T04:41:10;8.43;;;5.60;;
50555;SDS011;36508;52.512;13.450;2023-01-10T04:43:36;7.93;;;6.87;;
50555;SDS011;36508;52.512;13.450;2023-01-10T04:46:01;9.77;;;6.87;;
50555;SDS011;36508;52.512;13.450;2023-01-10T04:48:28;11.60;;;7.27;;
50555;SDS011;36508;52.512;13.450;2023-01-10T04:50:53;12.80;;;7.27;;
50555;SDS011;36508;52.512;13.450;2023-01-10T04:53:19;8.80;;;7.00;;
50555;SDS011;36508;52.512;13.450;2023-01-10T04:55:45;7.40;;;6.80;;
50555;SDS011;36508;52.512;13.450;2023-01-10T04:58:11;8.40;;;5.97;;
50555;SDS011;36508;52.512;13.450;2023-01-10T05:00:37;12.43;;;7.10;;
50555;SDS011;36508;52.512;13.450;2023-01-10T05:03:03;14.13;;;7.20;;
50555;SDS011;36508;52.512;13.450;2023-01-10T05:05:30;12.00;;;8.20;;
50555;SDS011;36508;52.512;13.450;2023-01-10T05:07:55;7.23;;;6.63;;
50555;SDS011;36508;52.512;13.450;2023-01-10T05:10:21;10.87;;;7.27;;
50555;SDS011;36508;52.512;13.450;2023-01-10T05:12:47;7.33;;;6.23;;
50555;SDS011;36508;52.512;13.450;2023-01-10T05:15:13;8.77;;;7.60;;
50555;SDS011;36508;52.512;13.450;2023-01-10T05:17:38;8.07;;;7.00;;
50555;SDS011;36508;52.512;13.450;2023-01-10T05:20:04;15.27;;;8.70;;
50555;SDS011;36508;52.512;13.450;2023-01-10T05:22:30;10.57;;;7.97;;
50555;SDS011;36508;52.512;13.450;2023-01-10T05:24:56;11.97;;;6.43;;
50555;SDS011;36508;52.512;13.450;2023-01-10T05:27:21;8.70;;;6.80;;
50555;SDS011;36508;52.512;13.450;2023-01-10T05:29:47;6.83;;;6.23;;
50555;SDS011;36508;52.512;13.450;2023-01-10T05:32:12;7.37;;;6.07;;
50555;SDS011;36508;52.512;13.450;2023-01-10T05:34:38;12.30;;;7.67;;
50555;SDS011;36508;52.512;13.450;2023-01-10T05:37:04;9.70;;;7.37;;
50555;SDS011;36508;52.512;13.450;2023-01-10T05:39:29;13.77;;;6.97;;
50555;SDS011;36508;52.512;13.450;2023-01-10T05:41:55;12.20;;;8.80;;
50555;SDS011;36508;52.512;13.450;2023-01-10T05:44:20;10.03;;;6.40;;
50555;SDS011;36508;52.512;13.450;2023-01-10T05:46:46;15.60;;;6.73;;
50555;SDS011;36508;52.512;13.450;2023-01-10T05:49:12;8.53;;;7.47;;
50555;SDS011;36508;52.512;13.450;2023-01-10T05:51:37;11.33;;;7.93;;
50555;SDS011;36508;52.512;13.450;2023-01-10T05:54:03;9.53;;;6.00;;
50555;SDS011;36508;52.512;13.450;2023-01-10T05:56:29;12.90;;;8.90;;
50555;SDS011;36508;52.512;13.450;2023-01-10T05:58:55;14.53;;;6.87;;
50555;SDS011;36508;52.512;13.450;2023-01-10T06:01:20;11.53;;;7.30;;
50555;SDS011;36508;52.512;13.450;2023-01-10T06:03:46;12.40;;;8.57;;
50555;SDS011;36508;52.512;13.450;2023-01-10T06:06:12;8.83;;;7.53;;
50555;SDS011;36508;52.512;13.450;2023-01-10T06:08:38;24.40;;;10.70;;
50555;SDS011;36508;52.512;13.450;2023-01-10T06:11:04;9.83;;;8.07;;
50555;SDS011;36508;52.512;13.450;2023-01-10T06:13:30;16.50;;;7.77;;
50555;SDS011;36508;52.512;13.450;2023-01-10T06:15:56;12.60;;;8.03;;
50555;SDS011;36508;52.512;13.450;2023-01-10T06:18:22;9.90;;;7.03;;
50555;SDS011;36508;52.512;13.450;2023-01-10T06:20:48;13.63;;;8.80;;
50555;SDS011;36508;52.512;13.450;2023-01-10T06:23:13;11.70;;;7.17;;
50555;SDS011;36508;52.512;13.450;2023-01-10T06:25:39;11.27;;;8.40;;
50555;SDS011;36508;52.512;13.450;2023-01-10T06:28:09;12.83;;;7.87;;
50555;SDS011;36508;52.512;13.450;2023-01-10T06:30:36;7.97;;;6.43;;
50555;SDS011;36508;52.512;13.450;2023-01-10T06:33:03;8.83;;;7.37;;
50555;SDS011;36508;52.512;13.450;2023-01-10T06:35:30;16.80;;;7.03;;
50555;SDS011;36508;52.512;13.450;2023-01-10T06:37:57;7.00;;;6.37;;
50555;SDS011;36508;52.512;13.450;2023-01-10T06:40:23;15.47;;;8.27;;
50555;SDS011;36508;52.512;13.450;2023-01-10T06:42:49;10.60;;;8.97;;
50555;SDS011;36508;52.512;13.450;2023-01-10T06:45:15;13.23;;;8.30;;
50555;SDS011;36508;52.512;13.450;2023-01-10T06:47:41;11.47;;;7.90;;
50555;SDS011;36508;52.512;13.450;2023-01-10T06:50:06;14.10;;;8.33;;
50555;SDS011;36508;52.512;13.450;2023-01-10T06:52:33;13.10;;;7.60;;
50555;SDS011;36508;52.512;13.450;2023-01-10T06:54:58;12.67;;;11.23;;
50555;SDS011;36508;52.512;13.450;2023-01-10T06:57:24;27.67;;;9.93;;
50555;SDS011;36508;52.512;13.450;2023-01-10T06:59:52;13.40;;;8.30;;
50555;SDS011;36508;52.512;13.450;2023-01-10T07:02:18;9.70;;;8.00;;
50555;SDS011;36508;52.512;13.450;2023-01-10T07:04:43;17.20;;;9.40;;
50555;SDS011;36508;52.512;13.450;2023-01-10T07:07:09;9.67;;;7.90;;
50555;SDS011;36508;52.512;13.450;2023-01-10T07:09:35;12.47;;;8.20;;
50555;SDS011;36508;52.512;13.450;2023-01-10T07:12:00;16.37;;;8.70;;
50555;SDS011;36508;52.512;13.450;2023-01-10T07:14:26;10.53;;;8.90;;
50555;SDS011;36508;52.512;13.450;2023-01-10T07:16:51;5.07;;;4.57;;
50555;SDS011;36508;52.512;13.450;2023-01-10T07:19:17;17.93;;;10.23;;
50555;SDS011;36508;52.512;13.450;2023-01-10T07:21:44;10.20;;;7.70;;
50555;SDS011;36508;52.512;13.450;2023-01-10T07:24:10;15.00;;;9.50;;
50555;SDS011;36508;52.512;13.450;2023-01-10T07:26:36;12.33;;;8.77;;
50555;SDS011;36508;52.512;13.450;2023-01-10T07:29:02;10.57;;;8.47;;
50555;SDS011;36508;52.512;13.450;2023-01-10T07:31:28;11.13;;;10.03;;
50555;SDS011;36508;52.512;13.450;2023-01-10T07:33:55;15.10;;;10.27;;
50555;SDS011;36508;52.512;13.450;2023-01-10T07:36:20;15.20;;;8.23;;
50555;SDS011;36508;52.512;13.450;2023-01-10T07:38:46;15.10;;;9.40;;
50555;SDS011;36508;52.512;13.450;2023-01-10T07:41:12;16.63;;;8.40;;
50555;SDS011;36508;52.512;13.450;2023-01-10T07:43:37;10.47;;;7.20;;
50555;SDS011;36508;52.512;13.450;2023-01-10T07:46:04;12.67;;;9.60;;
50555;SDS011;36508;52.512;13.450;2023-01-10T07:48:36;17.80;;;7.83;;
50555;SDS011;36508;52.512;13.450;2023-01-10T07:51:02;12.07;;;9.30;;
50555;SDS011;36508;52.512;13.450;2023-01-10T07:53:29;14.43;;;9.03;;
50555;SDS011;36508;52.512;13.450;2023-01-10T07:55:58;15.77;;;10.53;;
50555;SDS011;36508;52.512;13.450;2023-01-10T07:58:26;15.67;;;9.17;;
50555;SDS011;36508;52.512;13.450;2023-01-10T08:00:55;9.40;;;8.20;;
50555;SDS011;36508;52.512;13.450;2023-01-10T08:03:22;27.57;;;12.20;;
50555;SDS011;36508;52.512;13.450;2023-01-10T08:05:48;17.67;;;9.00;;
50555;SDS011;36508;52.512;13.450;2023-01-10T08:08:14;10.80;;;8.63;;
50555;SDS011;36508;52.512;13.450;2023-01-10T08:10:41;16.77;;;10.20;;
50555;SDS011;36508;52.512;13.450;2023-01-10T08:13:06;11.93;;;9.23;;
50555;SDS011;36508;52.512;13.450;2023-01-10T08:15:32;10.57;;;8.40;;
50555;SDS011;36508;52.512;13.450;2023-01-10T08:18:04;14.17;;;9.27;;
50555;SDS011;36508;52.512;13.450;2023-01-10T08:20:30;16.00;;;10.57;;
50555;SDS011;36508;52.512;13.450;2023-01-10T08:22:56;30.13;;;14.57;;
50555;SDS011;36508;52.512;13.450;2023-01-10T08:25:22;14.20;;;9.90;;
50555;SDS011;36508;52.512;13.450;2023-01-10T08:27:48;9.80;;;8.73;;
50555;SDS011;36508;52.512;13.450;2023-01-10T08:30:14;16.60;;;8.33;;
50555;SDS011;36508;52.512;13.450;2023-01-10T08:32:40;9.33;;;8.53;;
50555;SDS011;36508;52.512;13.450;2023-01-10T08:35:08;17.10;;;10.60;;
50555;SDS011;36508;52.512;13.450;2023-01-10T08:37:50;18.10;;;10.80;;
50555;SDS011;36508;52.512;13.450;2023-01-10T08:40:16;8.57;;;7.77;;
50555;SDS011;36508;52.512;13.450;2023-01-10T08:42:42;15.33;;;9.73;;
50555;SDS011;36508;52.512;13.450;2023-01-10T08:45:07;14.40;;;9.80;;
50555;SDS011;36508;52.512;13.450;2023-01-10T08:47:34;12.80;;;9.80;;
50555;SDS011;36508;52.512;13.450;2023-01-10T08:49:59;14.57;;;9.20;;
50555;SDS011;36508;52.512;13.450;2023-01-10T08:52:25;16.47;;;9.40;;
50555;SDS011;36508;52.512;13.450;2023-01-10T08:54:50;13.67;;;9.57;;
50555;SDS011;36508;52.512;13.450;2023-01-10T08:57:16;11.77;;;9.83;;
50555;SDS011;36508;52.512;13.450;2023-01-10T08:59:42;14.67;;;8.57;;
50555;SDS011;36508;52.512;13.450;2023-01-10T09:02:09;13.20;;;9.80;;
50555;SDS011;36508;52.512;13.450;2023-01-10T09:04:37;14.20;;;9.80;;
50555;SDS011;36508;52.512;13.450;2023-01-10T09:07:03;24.67;;;10.13;;
50555;SDS011;36508;52.512;13.450;2023-01-10T09:09:28;17.77;;;9.97;;
50555;SDS011;36508;52.512;13.450;2023-01-10T09:11:54;14.30;;;9.80;;
50555;SDS011;36508;52.512;13.450;2023-01-10T09:14:21;11.97;;;9.53;;
50555;SDS011;36508;52.512;13.450;2023-01-10T09:16:47;9.17;;;7.97;;
50555;SDS011;36508;52.512;13.450;2023-01-10T09:19:15;15.10;;;10.73;;
50555;SDS011;36508;52.512;13.450;2023-01-10T09:21:41;8.27;;;6.67;;
50555;SDS011;36508;52.512;13.450;2023-01-10T09:24:07;7.57;;;6.87;;
50555;SDS011;36508;52.512;13.450;2023-01-10T09:26:32;9.47;;;8.50;;
50555;SDS011;36508;52.512;13.450;2023-01-10T09:28:58;9.77;;;7.87;;
50555;SDS011;36508;52.512;13.450;2023-01-10T09:31:24;15.10;;;8.80;;
50555;SDS011;36508;52.512;13.450;2023-01-10T09:33:50;8.37;;;7.53;;
50555;SDS011;36508;52.512;13.450;2023-01-10T09:36:16;12.17;;;8.20;;
50555;SDS011;36508;52.512;13.450;2023-01-10T09:38:42;14.70;;;7.97;;
50555;SDS011;36508;52.512;13.450;2023-01-10T09:52:05;13.37;;;7.53;;
50555;SDS011;36508;52.512;13.450;2023-01-10T09:54:46;8.90;;;6.60;;
50555;SDS011;36508;52.512;13.450;2023-01-10T09:57:18;7.90;;;7.10;;
50555;SDS011;36508;52.512;13.450;2023-01-10T09:59:46;11.07;;;8.80;;
50555;SDS011;36508;52.512;13.450;2023-01-10T10:05:06;13.80;;;8.33;;
50555;SDS011;36508;52.512;13.450;2023-01-10T10:07:37;9.07;;;7.30;;
50555;SDS011;36508;52.512;13.450;2023-01-10T10:10:04;7.33;;;6.63;;
50555;SDS011;36508;52.512;13.450;2023-01-10T10:34:52;11.70;;;7.40;;
50555;SDS011;36508;52.512;13.450;2023-01-10T10:37:46;16.30;;;10.10;;
50555;SDS011;36508;52.512;13.450;2023-01-10T10:40:19;9.63;;;7.73;;
50555;SDS011;36508;52.512;13.450;2023-01-10T10:42:51;12.93;;;8.33;;
50555;SDS011;36508;52.512;13.450;2023-01-10T10:45:31;13.10;;;7.57;;
50555;SDS011;36508;52.512;13.450;2023-01-10T10:48:10;18.43;;;9.00;;
50555;SDS011;36508;52.512;13.450;2023-01-10T10:51:26;12.93;;;7.67;;
50555;SDS011;36508;52.512;13.450;2023-01-10T10:53:38;14.23;;;7.27;;
50555;SDS011;36508;52.512;13.450;2023-01-10T10:56:04;8.03;;;6.20;;
50555;SDS011;36508;52.512;13.450;2023-01-10T10:58:34;7.83;;;6.27;;
50555;SDS011;36508;52.512;13.450;2023-01-10T11:01:00;6.10;;;5.47;;
50555;SDS011;36508;52.512;13.450;2023-01-10T11:03:27;9.10;;;6.03;;
50555;SDS011;36508;52.512;13.450;2023-01-10T11:06:04;14.77;;;7.53;;
50555;SDS011;36508;52.512;13.450;2023-01-10T11:08:33;6.17;;;5.40;;
50555;SDS011;36508;52.512;13.450;2023-01-10T11:11:26;10.23;;;6.13;;
50555;SDS011;36508;52.512;13.450;2023-01-10T11:13:59;17.23;;;6.53;;
50555;SDS011;36508;52.512;13.450;2023-01-10T11:16:34;10.17;;;6.00;;
50555;SDS011;36508;52.512;13.450;2023-01-10T11:21:42;8.13;;;6.70;;
50555;SDS011;36508;52.512;13.450;2023-01-10T11:24:22;9.53;;;6.70;;
50555;SDS011;36508;52.512;13.450;2023-01-10T11:26:51;9.80;;;6.97;;
50555;SDS011;36508;52.512;13.450;2023-01-10T11:29:24;11.63;;;7.90;;
50555;SDS011;36508;52.512;13.450;2023-01-10T11:35:00;15.13;;;8.23;;
50555;SDS011;36508;52.512;13.450;2023-01-10T11:37:32;15.87;;;7.43;;
50555;SDS011;36508;52.512;13.450;2023-01-10T11:40:16;7.40;;;6.23;;
50555;SDS011;36508;52.512;13.450;2023-01-10T11:42:48;11.10;;;7.27;;
50555;SDS011;36508;52.512;13.450;2023-01-10T11:47:47;6.87;;;5.97;;
50555;SDS011;36508;52.512;13.450;2023-01-10T11:50:24;6.80;;;5.50;;
50555;SDS011;36508;52.512;13.450;2023-01-10T11:52:52;9.97;;;7.60;;
50555;SDS011;36508;52.512;13.450;2023-01-10T11:55:23;6.67;;;4.93;;
50555;SDS011;36508;52.512;13.450;2023-01-10T11:57:56;10.90;;;7.00;;
50555;SDS011;36508;52.512;13.450;2023-01-10T12:00:47;7.40;;;6.70;;
50555;SDS011;36508;52.512;13.450;2023-01-10T12:03:19;7.73;;;4.30;;
50555;SDS011;36508;52.512;13.450;2023-01-10T12:05:52;7.27;;;5.40;;
50555;SDS011;36508;52.512;13.450;2023-01-10T12:08:24;9.00;;;6.33;;
50555;SDS011;36508;52.512;13.450;2023-01-10T12:10:55;10.50;;;7.40;;
50555;SDS011;36508;52.512;13.450;2023-01-10T12:13:27;10.27;;;5.80;;
50555;SDS011;36508;52.512;13.450;2023-01-10T12:16:14;21.40;;;8.50;;
50555;SDS011;36508;52.512;13.450;2023-01-10T12:18:41;11.40;;;6.87;;
50555;SDS011;36508;52.512;13.450;2023-01-10T12:21:07;10.13;;;5.10;;
50555;SDS011;36508;52.512;13.450;2023-01-10T12:23:36;10.40;;;5.70;;
50555;SDS011;36508;52.512;13.450;2023-01-10T12:26:05;7.30;;;4.93;;
50555;SDS011;36508;52.512;13.450;2023-01-10T12:28:33;5.37;;;3.80;;
50555;SDS011;36508;52.512;13.450;2023-01-10T12:31:01;8.80;;;4.73;;
50555;SDS011;36508;52.512;13.450;2023-01-10T12:39:18;11.43;;;6.23;;
50555;SDS011;36508;52.512;13.450;2023-01-10T12:44:46;10.03;;;5.90;;
50555;SDS011;36508;52.512;13.450;2023-01-10T12:55:26;11.70;;;4.97;;
50555;SDS011;36508;52.512;13.450;2023-01-10T12:58:04;7.20;;;3.90;;
50555;SDS011;36508;52.512;13.450;2023-01-10T13:03:00;7.03;;;3.33;;
50555;SDS011;36508;52.512;13.450;2023-01-10T13:05:33;12.30;;;4.43;;
50555;SDS011;36508;52.512;13.450;2023-01-10T13:07:59;8.83;;;4.37;;
50555;SDS011;36508;52.512;13.450;2023-01-10T13:10:30;11.03;;;5.30;;
50555;SDS011;36508;52.512;13.450;2023-01-10T13:15:36;14.80;;;4.47;;
50555;SDS011;36508;52.512;13.450;2023-01-10T13:18:25;9.57;;;3.97;;
50555;SDS011;36508;52.512;13.450;2023-01-10T13:21:02;5.83;;;2.43;;
50555;SDS011;36508;52.512;13.450;2023-01-10T13:23:33;14.00;;;3.47;;
50555;SDS011;36508;52.512;13.450;2023-01-10T13:26:16;8.03;;;2.73;;
50555;SDS011;36508;52.512;13.450;2023-01-10T13:31:25;8.20;;;3.63;;
50555;SDS011;36508;52.512;13.450;2023-01-10T13:33:58;4.40;;;3.13;;
50555;SDS011;36508;52.512;13.450;2023-01-10T13:39:29;6.63;;;3.80;;
50555;SDS011;36508;52.512;13.450;2023-01-10T14:08:38;7.47;;;4.17;;
50555;SDS011;36508;52.512;13.450;2023-01-10T14:11:11;16.43;;;5.53;;
50555;SDS011;36508;52.512;13.450;2023-01-10T14:13:37;9.57;;;5.10;;
50555;SDS011;36508;52.512;13.450;2023-01-10T14:21:53;10.17;;;5.20;;
50555;SDS011;36508;52.512;13.450;2023-01-10T14:26:55;10.83;;;4.70;;
50555;SDS011;36508;52.512;13.450;2023-01-10T14:29:26;7.40;;;4.77;;
50555;SDS011;36508;52.512;13.450;2023-01-10T14:31:57;10.97;;;4.90;;
50555;SDS011;36508;52.512;13.450;2023-01-10T14:34:31;4.80;;;3.10;;
50555;SDS011;36508;52.512;13.450;2023-01-10T14:37:02;8.00;;;4.40;;
50555;SDS011;36508;52.512;13.450;2023-01-10T14:39:32;10.63;;;4.67;;
50555;SDS011;36508;52.512;13.450;2023-01-10T14:42:00;9.37;;;4.80;;
50555;SDS011;36508;52.512;13.450;2023-01-10T14:49:55;7.00;;;4.80;;
50555;SDS011;36508;52.512;13.450;2023-01-10T14:52:30;6.90;;;4.77;;
50555;SDS011;36508;52.512;13.450;2023-01-10T14:55:10;5.60;;;3.97;;
50555;SDS011;36508;52.512;13.450;2023-01-10T14:57:51;11.33;;;6.40;;
50555;SDS011;36508;52.512;13.450;2023-01-10T15:00:25;13.07;;;5.27;;
50555;SDS011;36508;52.512;13.450;2023-01-10T15:02:56;14.13;;;5.17;;
50555;SDS011;36508;52.512;13.450;2023-01-10T15:05:26;7.27;;;4.60;;
50555;SDS011;36508;52.512;13.450;2023-01-10T15:07:53;10.73;;;4.43;;
50555;SDS011;36508;52.512;13.450;2023-01-10T15:10:42;10.60;;;6.37;;
50555;SDS011;36508;52.512;13.450;2023-01-10T15:13:12;7.47;;;3.93;;
50555;SDS011;36508;52.512;13.450;2023-01-10T15:15:40;9.03;;;5.93;;
50555;SDS011;36508;52.512;13.450;2023-01-10T15:20:51;13.07;;;5.07;;
50555;SDS011;36508;52.512;13.450;2023-01-10T15:23:18;8.30;;;5.27;;
50555;SDS011;36508;52.512;13.450;2023-01-10T15:25:44;9.37;;;5.33;;
50555;SDS011;36508;52.512;13.450;2023-01-10T15:28:20;8.10;;;6.40;;
50555;SDS011;36508;52.512;13.450;2023-01-10T15:30:46;7.33;;;5.90;;
50555;SDS011;36508;52.512;13.450;2023-01-10T15:33:13;13.07;;;4.87;;
50555;SDS011;36508;52.512;13.450;2023-01-10T15:35:51;10.27;;;6.60;;
50555;SDS011;36508;52.512;13.450;2023-01-10T15:38:19;7.00;;;5.90;;
50555;SDS011;36508;52.512;13.450;2023-01-10T15:40:57;7.23;;;5.17;;
50555;SDS011;36508;52.512;13.450;2023-01-10T15:43:27;10.73;;;7.87;;
50555;SDS011;36508;52.512;13.450;2023-01-10T15:46:01;10.97;;;5.97;;
50555;SDS011;36508;52.512;13.450;2023-01-10T15:48:32;9.33;;;5.07;;
50555;SDS011;36508;52.512;13.450;2023-01-10T15:51:48;9.77;;;5.27;;
50555;SDS011;36508;52.512;13.450;2023-01-10T15:58:59;8.63;;;4.73;;
50555;SDS011;36508;52.512;13.450;2023-01-10T16:01:25;11.40;;;5.33;;
50555;SDS011;36508;52.512;13.450;2023-01-10T16:03:52;10.40;;;6.27;;
50555;SDS011;36508;52.512;13.450;2023-01-10T16:06:33;12.30;;;4.73;;
50555;SDS011;36508;52.512;13.450;2023-01-10T16:09:01;6.40;;;4.47;;
50555;SDS011;36508;52.512;13.450;2023-01-10T16:14:33;8.10;;;4.47;;
50555;SDS011;36508;52.512;13.450;2023-01-10T16:17:00;13.30;;;8.03;;
50555;SDS011;36508;52.512;13.450;2023-01-10T16:19:27;14.50;;;11.53;;
50555;SDS011;36508;52.512;13.450;2023-01-10T16:21:53;6.73;;;5.43;;
50555;SDS011;36508;52.512;13.450;2023-01-10T16:24:33;6.90;;;6.00;;
50555;SDS011;36508;52.512;13.450;2023-01-10T16:27:02;12.10;;;8.23;;
50555;SDS011;36508;52.512;13.450;2023-01-10T16:29:29;6.37;;;4.93;;
50555;SDS011;36508;52.512;13.450;2023-01-10T16:31:56;15.97;;;6.63;;
50555;SDS011;36508;52.512;13.450;2023-01-10T16:34:21;10.83;;;6.90;;
50555;SDS011;36508;52.512;13.450;2023-01-10T16:36:48;13.83;;;7.90;;
50555;SDS011;36508;52.512;13.450;2023-01-10T16:39:14;14.03;;;8.20;;
50555;SDS011;36508;52.512;13.450;2023-01-10T16:41:42;7.60;;;6.90;;
50555;SDS011;36508;52.512;13.450;2023-01-10T16:44:27;12.67;;;11.33;;
50555;SDS011;36508;52.512;13.450;2023-01-10T16:46:53;7.77;;;6.40;;
50555;SDS011;36508;52.512;13.450;2023-01-10T16:49:20;10.17;;;7.37;;
50555;SDS011;36508;52.512;13.450;2023-01-10T16:51:45;11.23;;;8.70;;
50555;SDS011;36508;52.512;13.450;2023-01-10T16:54:12;10.80;;;7.00;;
50555;SDS011;36508;52.512;13.450;2023-01-10T16:56:43;14.77;;;6.87;;
50555;SDS011;36508;52.512;13.450;2023-01-10T16:59:10;9.93;;;6.80;;
50555;SDS011;36508;52.512;13.450;2023-01-10T17:01:40;6.87;;;5.03;;
50555;SDS011;36508;52.512;13.450;2023-01-10T17:04:19;12.80;;;7.00;;
50555;SDS011;36508;52.512;13.450;2023-01-10T17:06:47;8.70;;;5.60;;
50555;SDS011;36508;52.512;13.450;2023-01-10T17:09:21;25.17;;;6.67;;
50555;SDS011;36508;52.512;13.450;2023-01-10T17:11:49;14.87;;;5.80;;
50555;SDS011;36508;52.512;13.450;2023-01-10T17:14:20;9.37;;;7.57;;
50555;SDS011;36508;52.512;13.450;2023-01-10T17:16:47;9.37;;;5.87;;